createdAt,value
2023-01-09T00:01:21.829Z,12.52
2023-01-09T00:03:49.157Z,13.23
2023-01-09T00:06:17.169Z,11.73
2023-01-09T00:08:44.529Z,12.18
2023-01-09T00:11:11.545Z,12.38
2023-01-09T00:13:39.312Z,12.52
2023-01-09T00:16:08.247Z,13.20
2023-01-09T00:18:37.036Z,12.50
2023-01-09T00:21:08.382Z,13.80
2023-01-09T00:23:36.484Z,12.00
2023-01-09T00:26:11.553Z,12.63
2023-01-09T00:28:39.213Z,12.15
2023-01-09T00:31:08.962Z,12.38
2023-01-09T00:33:42.708Z,14.27
2023-01-09T00:36:11.030Z,12.68
2023-01-09T00:38:39.180Z,13.15
2023-01-09T00:41:11.383Z,13.10
2023-01-09T00:43:51.741Z,13.30
2023-01-09T00:46:24.426Z,13.65
2023-01-09T00:48:52.091Z,13.45
2023-01-09T00:51:20.275Z,12.60
2023-01-09T00:53:50.527Z,14.35
2023-01-09T00:56:20.879Z,12.82
2023-01-09T00:58:48.764Z,12.50
2023-01-09T01:01:15.829Z,13.15
2023-01-09T01:03:43.050Z,13.45
2023-01-09T01:06:28.833Z,12.25
2023-01-09T01:08:56.453Z,11.52
2023-01-09T01:11:24.199Z,13.55
2023-01-09T01:13:51.991Z,12.02
2023-01-09T01:16:19.058Z,12.50
2023-01-09T01:18:46.364Z,13.18
2023-01-09T01:21:15.496Z,14.10
2023-01-09T01:23:43.705Z,13.85
2023-01-09T01:26:15.878Z,13.43
2023-01-09T01:28:43.427Z,12.18
2023-01-09T01:31:17.591Z,13.13
2023-01-09T01:33:44.813Z,13.27
2023-01-09T01:36:11.867Z,13.18
2023-01-09T01:38:39.033Z,13.55
2023-01-09T01:41:07.089Z,16.08
2023-01-09T01:43:54.307Z,22.85
2023-01-09T01:46:22.230Z,18.08
2023-01-09T01:48:59.718Z,20.88
2023-01-09T01:51:32.466Z,16.75
2023-01-09T01:54:07.994Z,16.00
2023-01-09T01:56:57.055Z,16.27
2023-01-09T01:59:43.162Z,16.02
2023-01-09T02:02:11.310Z,14.43
2023-01-09T02:04:40.426Z,14.82
2023-01-09T02:07:10.254Z,14.25
2023-01-09T02:09:40.392Z,12.68
2023-01-09T02:12:26.994Z,13.70
2023-01-09T02:15:03.327Z,12.73
2023-01-09T02:17:53.101Z,13.52
2023-01-09T02:20:36.352Z,14.07
2023-01-09T02:23:38.710Z,14.65
2023-01-09T02:26:33.225Z,13.63
2023-01-09T02:29:33.823Z,14.10
2023-01-09T02:32:19.050Z,14.13
2023-01-09T02:35:07.767Z,14.68
2023-01-09T02:38:03.475Z,14.23
2023-01-09T02:40:41.450Z,15.23
2023-01-09T02:43:10.669Z,14.10
2023-01-09T02:45:37.657Z,13.55
2023-01-09T02:48:05.316Z,13.15
2023-01-09T02:51:11.167Z,12.38
2023-01-09T02:54:05.764Z,12.80
2023-01-09T02:56:55.998Z,13.98
2023-01-09T02:59:56.494Z,13.65
2023-01-09T03:02:49.310Z,13.27
2023-01-09T03:05:42.553Z,12.95
2023-01-09T03:08:20.732Z,12.85
2023-01-09T03:11:06.698Z,14.40
2023-01-09T03:13:45.248Z,13.63
2023-01-09T03:16:23.917Z,14.05
2023-01-09T03:18:53.606Z,14.07
2023-01-09T03:21:23.428Z,13.75
2023-01-09T03:23:59.814Z,13.35
2023-01-09T03:26:31.592Z,14.50
2023-01-09T03:28:59.875Z,14.15
2023-01-09T03:31:27.483Z,14.02
2023-01-09T03:33:54.722Z,14.07
2023-01-09T03:36:23.934Z,14.48
2023-01-09T03:38:51.618Z,15.85
2023-01-09T03:41:20.125Z,13.88
2023-01-09T03:43:48.560Z,15.18
2023-01-09T03:46:17.194Z,14.65
2023-01-09T03:48:44.306Z,14.40
2023-01-09T03:51:11.636Z,16.23
2023-01-09T03:53:38.964Z,14.48
2023-01-09T03:56:06.556Z,14.80
2023-01-09T03:58:33.563Z,16.48
2023-01-09T04:01:05.466Z,15.98
2023-01-09T04:03:32.506Z,15.75
2023-01-09T04:06:00.129Z,14.95
2023-01-09T04:08:27.050Z,15.07
2023-01-09T04:10:54.257Z,15.75
2023-01-09T04:13:21.130Z,15.63
2023-01-09T04:15:48.353Z,15.98
2023-01-09T04:18:16.123Z,14.18
2023-01-09T04:20:46.481Z,16.27
2023-01-09T04:23:13.363Z,15.23
2023-01-09T04:25:40.474Z,15.80
2023-01-09T04:28:07.521Z,15.35
2023-01-09T04:30:34.748Z,16.77
2023-01-09T04:33:01.661Z,17.05
2023-01-09T04:35:28.844Z,17.23
2023-01-09T04:37:55.826Z,16.83
2023-01-09T04:40:23.061Z,17.48
2023-01-09T04:42:49.983Z,19.85
2023-01-09T04:45:17.351Z,24.48
2023-01-09T04:47:44.876Z,30.65
2023-01-09T04:50:13.309Z,35.05
2023-01-09T04:52:40.699Z,36.28
2023-01-09T04:55:09.111Z,35.55
2023-01-09T04:57:37.127Z,36.03
2023-01-09T05:00:09.754Z,37.70
2023-01-09T05:02:37.437Z,35.15
2023-01-09T05:05:10.440Z,30.00
2023-01-09T05:07:38.682Z,30.50
2023-01-09T05:10:07.441Z,33.10
2023-01-09T05:12:37.070Z,32.80
2023-01-09T05:15:06.709Z,30.70
2023-01-09T05:17:33.701Z,28.60
2023-01-09T05:20:03.481Z,28.48
2023-01-09T05:22:30.442Z,27.88
2023-01-09T05:24:59.661Z,23.45
2023-01-09T05:27:27.469Z,21.02
2023-01-09T05:29:54.596Z,20.08
2023-01-09T05:32:21.534Z,18.50
2023-01-09T05:34:48.723Z,16.67
2023-01-09T05:37:15.708Z,16.80
2023-01-09T05:39:43.549Z,17.77
2023-01-09T05:42:11.009Z,16.95
2023-01-09T05:44:38.183Z,15.15
2023-01-09T05:47:05.171Z,14.23
2023-01-09T05:49:32.172Z,15.95
2023-01-09T05:51:59.333Z,14.13
2023-01-09T05:54:26.241Z,14.35
2023-01-09T05:56:53.548Z,13.70
2023-01-09T05:59:20.594Z,14.55
2023-01-09T06:01:47.853Z,13.65
2023-01-09T06:04:46.840Z,13.27
2023-01-09T06:13:17.404Z,13.48
2023-01-09T06:15:44.810Z,11.93
2023-01-09T06:18:12.388Z,12.13
2023-01-09T06:20:39.601Z,11.82
2023-01-09T06:23:06.591Z,10.75
2023-01-09T06:25:34.222Z,11.48
2023-01-09T06:28:01.237Z,11.20
2023-01-09T06:30:28.478Z,11.65
2023-01-09T06:32:55.452Z,10.63
2023-01-09T06:35:23.137Z,10.93
2023-01-09T06:37:50.894Z,10.48
2023-01-09T06:40:21.081Z,10.30
2023-01-09T06:42:50.466Z,9.68
2023-01-09T06:45:18.447Z,9.52
2023-01-09T06:47:46.485Z,10.18
2023-01-09T06:50:13.753Z,10.07
2023-01-09T06:52:40.788Z,8.75
2023-01-09T06:55:09.094Z,9.85
2023-01-09T06:57:36.261Z,8.88
2023-01-09T07:00:04.929Z,8.27
2023-01-09T07:02:32.034Z,9.00
2023-01-09T07:05:00.056Z,9.55
2023-01-09T07:07:27.083Z,9.10
2023-01-09T07:09:54.296Z,9.43
2023-01-09T07:12:21.189Z,8.40
2023-01-09T07:14:48.500Z,8.23
2023-01-09T07:17:15.717Z,10.00
2023-01-09T07:19:43.373Z,9.20
2023-01-09T07:22:11.173Z,9.20
2023-01-09T07:24:38.390Z,8.90
2023-01-09T07:27:05.613Z,9.25
2023-01-09T07:29:32.794Z,8.98
2023-01-09T07:31:59.728Z,7.78
2023-01-09T07:34:26.900Z,8.68
2023-01-09T07:36:53.942Z,8.85
2023-01-09T07:39:21.713Z,8.60
2023-01-09T07:41:48.647Z,8.82
2023-01-09T07:44:16.477Z,8.38
2023-01-09T07:46:43.422Z,8.32
2023-01-09T07:49:10.583Z,9.27
2023-01-09T07:51:42.790Z,8.23
2023-01-09T07:54:12.591Z,8.18
2023-01-09T07:56:40.612Z,7.78
2023-01-09T07:59:08.061Z,6.95
2023-01-09T08:01:35.341Z,7.85
2023-01-09T08:04:02.632Z,8.52
2023-01-09T08:06:30.176Z,7.70
2023-01-09T08:08:58.456Z,8.30
2023-01-09T08:11:26.155Z,8.68
2023-01-09T08:13:53.312Z,10.10
2023-01-09T08:16:20.867Z,8.55
2023-01-09T08:18:48.296Z,8.52
2023-01-09T08:21:16.302Z,8.15
2023-01-09T08:23:45.509Z,8.55
2023-01-09T08:26:13.268Z,8.65
2023-01-09T08:28:40.370Z,8.80
2023-01-09T08:31:07.413Z,8.05
2023-01-09T08:33:34.704Z,9.32
2023-01-09T08:36:01.867Z,8.75
2023-01-09T08:38:29.152Z,8.18
2023-01-09T08:40:56.204Z,8.23
2023-01-09T08:43:42.353Z,8.40
2023-01-09T08:46:40.144Z,8.30
2023-01-09T08:49:07.318Z,8.48
2023-01-09T08:51:34.254Z,8.35
2023-01-09T08:54:01.517Z,8.45
2023-01-09T08:56:28.408Z,9.30
2023-01-09T08:58:55.622Z,9.35
2023-01-09T09:01:22.537Z,8.98
2023-01-09T09:03:49.768Z,9.05
2023-01-09T09:06:16.745Z,8.35
2023-01-09T09:08:43.970Z,8.57
2023-01-09T09:11:11.664Z,9.07
2023-01-09T09:13:38.798Z,8.23
2023-01-09T09:16:06.293Z,9.00
2023-01-09T09:18:33.575Z,9.35
2023-01-09T09:21:00.475Z,10.02
2023-01-09T09:23:28.227Z,9.20
2023-01-09T09:25:55.219Z,8.57
2023-01-09T09:28:22.435Z,9.02
2023-01-09T09:30:49.336Z,8.63
2023-01-09T09:33:16.549Z,9.48
2023-01-09T09:35:43.430Z,10.10
2023-01-09T09:38:11.029Z,10.77
2023-01-09T09:41:01.948Z,10.30
2023-01-09T09:44:39.593Z,9.50
2023-01-09T09:47:43.471Z,9.43
2023-01-09T09:50:42.850Z,9.10
2023-01-09T09:53:21.741Z,9.82
2023-01-09T09:55:50.615Z,9.25
2023-01-09T09:59:05.838Z,9.57
2023-01-09T10:01:57.650Z,8.90
2023-01-09T10:04:29.480Z,8.85
2023-01-09T10:07:09.478Z,9.32
2023-01-09T10:09:50.520Z,8.77
2023-01-09T10:12:39.343Z,10.40
2023-01-09T10:15:28.708Z,9.60
2023-01-09T10:18:34.603Z,9.38
2023-01-09T10:21:35.649Z,9.60
2023-01-09T10:24:22.442Z,8.75
2023-01-09T10:26:54.075Z,8.55
2023-01-09T10:30:01.720Z,7.50
2023-01-09T10:32:37.267Z,8.15
2023-01-09T10:35:48.563Z,7.43
2023-01-09T10:38:26.497Z,7.65
2023-01-09T10:41:16.525Z,7.55
2023-01-09T10:44:18.357Z,8.15
2023-01-09T10:46:54.416Z,7.85
2023-01-09T10:49:24.243Z,9.13
2023-01-09T10:52:15.586Z,7.55
2023-01-09T10:55:15.099Z,7.80
2023-01-09T10:57:47.646Z,7.45
2023-01-09T11:00:23.548Z,6.95
2023-01-09T11:02:55.226Z,7.30
2023-01-09T11:05:28.417Z,7.88
2023-01-09T11:08:14.013Z,7.40
2023-01-09T11:10:53.492Z,7.72
2023-01-09T11:13:33.592Z,6.93
2023-01-09T11:16:21.082Z,7.47
2023-01-09T11:18:53.403Z,6.97
2023-01-09T11:21:36.173Z,6.28
2023-01-09T11:24:21.575Z,6.80
2023-01-09T11:26:54.676Z,7.63
2023-01-09T11:29:26.633Z,6.43
2023-01-09T11:32:02.063Z,7.07
2023-01-09T11:34:36.364Z,7.28
2023-01-09T11:37:11.103Z,6.30
2023-01-09T11:42:44.749Z,5.53
2023-01-09T11:45:27.303Z,4.78
2023-01-09T11:47:54.429Z,4.38
2023-01-09T11:50:29.178Z,4.72
2023-01-09T11:53:27.026Z,5.88
2023-01-09T11:56:01.320Z,4.65
2023-01-09T11:58:35.183Z,4.47
2023-01-09T12:01:48.569Z,7.27
2023-01-09T12:04:28.964Z,3.30
2023-01-09T12:07:18.660Z,3.40
2023-01-09T12:10:40.929Z,2.60
2023-01-09T12:13:48.918Z,4.05
2023-01-09T12:16:37.906Z,3.25
2023-01-09T12:19:24.686Z,4.57
2023-01-09T12:22:40.919Z,4.80
2023-01-09T12:25:40.574Z,4.25
2023-01-09T12:28:49.513Z,4.03
2023-01-09T12:32:04.833Z,3.40
2023-01-09T12:34:38.744Z,3.10
2023-01-09T12:37:40.582Z,3.07
2023-01-09T12:40:16.538Z,3.15
2023-01-09T12:43:05.153Z,4.10
2023-01-09T12:45:59.839Z,2.85
2023-01-09T12:48:42.116Z,5.22
2023-01-09T12:51:33.223Z,3.03
2023-01-09T12:54:26.599Z,2.70
2023-01-09T12:57:04.249Z,2.80
2023-01-09T12:59:45.532Z,3.20
2023-01-09T13:02:42.230Z,2.47
2023-01-09T13:05:23.959Z,2.60
2023-01-09T13:08:20.113Z,3.03
2023-01-09T13:11:18.996Z,4.65
2023-01-09T13:14:13.493Z,2.72
2023-01-09T13:16:48.735Z,3.20
2023-01-09T13:21:57.270Z,2.45
2023-01-09T13:24:49.536Z,3.33
2023-01-09T13:27:21.638Z,2.55
2023-01-09T13:29:55.943Z,2.10
2023-01-09T13:33:12.067Z,2.45
2023-01-09T13:35:55.741Z,1.88
2023-01-09T13:38:27.563Z,2.00
2023-01-09T13:41:30.612Z,1.65
2023-01-09T13:44:06.175Z,3.25
2023-01-09T13:46:44.467Z,2.65
2023-01-09T13:49:44.167Z,4.13
2023-01-09T13:52:29.140Z,5.90
2023-01-09T13:54:59.793Z,3.70
2023-01-09T13:57:35.149Z,2.28
2023-01-09T14:00:14.603Z,2.80
2023-01-09T14:02:42.087Z,4.68
2023-01-09T14:05:33.575Z,4.45
2023-01-09T14:08:23.857Z,3.70
2023-01-09T14:10:57.791Z,2.00
2023-01-09T14:13:43.511Z,2.75
2023-01-09T14:16:23.967Z,3.35
2023-01-09T14:18:52.521Z,5.43
2023-01-09T14:21:21.103Z,2.92
2023-01-09T14:24:03.447Z,2.10
2023-01-09T14:26:58.811Z,2.10
2023-01-09T14:29:29.366Z,2.30
2023-01-09T14:32:26.516Z,2.70
2023-01-09T14:35:17.972Z,4.10
2023-01-09T14:38:02.697Z,4.38
2023-01-09T14:40:32.936Z,2.42
2023-01-09T14:43:19.749Z,3.40
2023-01-09T14:45:50.179Z,2.28
2023-01-09T14:48:19.767Z,1.98
2023-01-09T14:50:55.652Z,3.13
2023-01-09T14:53:37.347Z,2.30
2023-01-09T14:56:07.364Z,2.83
2023-01-09T14:58:36.816Z,2.03
2023-01-09T15:01:24.001Z,2.90
2023-01-09T15:04:03.692Z,2.42
2023-01-09T15:06:51.838Z,3.45
2023-01-09T15:09:47.864Z,3.90
2023-01-09T15:12:27.084Z,1.85
2023-01-09T15:15:04.848Z,3.35
2023-01-09T15:17:36.663Z,2.40
2023-01-09T15:20:09.849Z,1.48
2023-01-09T15:22:38.027Z,2.90
2023-01-09T15:25:38.044Z,3.78
2023-01-09T15:28:32.623Z,2.55
2023-01-09T15:31:10.119Z,3.17
2023-01-09T15:33:43.013Z,2.58
2023-01-09T15:36:31.051Z,3.25
2023-01-09T15:38:59.777Z,2.80
2023-01-09T15:41:49.948Z,3.35
2023-01-09T15:44:27.989Z,4.43
2023-01-09T15:47:01.401Z,2.92
2023-01-09T15:49:29.542Z,3.03
2023-01-09T15:51:58.383Z,2.95
2023-01-09T15:54:32.763Z,3.78
2023-01-09T15:57:25.444Z,4.53
2023-01-09T15:59:57.950Z,2.45
2023-01-09T16:02:45.896Z,7.45
2023-01-09T16:05:18.035Z,5.97
2023-01-09T16:07:48.565Z,3.78
2023-01-09T16:10:35.550Z,4.45
2023-01-09T16:13:03.898Z,2.80
2023-01-09T16:15:35.223Z,6.15
2023-01-09T16:18:37.476Z,6.90
2023-01-09T16:21:22.443Z,2.60
2023-01-09T16:26:31.066Z,3.70
2023-01-09T16:29:36.088Z,3.85
2023-01-09T16:32:06.889Z,3.92
2023-01-09T16:34:37.924Z,5.63
2023-01-09T16:37:06.172Z,4.00
2023-01-09T16:39:36.925Z,8.90
2023-01-09T16:42:34.990Z,4.72
2023-01-09T16:45:09.522Z,6.70
2023-01-09T16:47:36.659Z,6.23
2023-01-09T16:50:04.983Z,6.07
2023-01-09T16:52:32.181Z,3.25
2023-01-09T16:55:00.100Z,3.75
2023-01-09T16:57:29.926Z,5.75
2023-01-09T17:00:00.217Z,6.13
2023-01-09T17:02:28.075Z,11.45
2023-01-09T17:04:59.969Z,6.28
2023-01-09T17:07:31.295Z,7.40
2023-01-09T17:10:01.264Z,6.40
2023-01-09T17:12:33.988Z,5.53
2023-01-09T17:15:15.952Z,5.80
2023-01-09T17:17:53.970Z,6.28
2023-01-09T17:20:27.922Z,4.82
2023-01-09T17:23:00.097Z,5.30
2023-01-09T17:25:46.661Z,5.85
2023-01-09T17:28:44.003Z,5.75
2023-01-09T17:31:14.126Z,4.78
2023-01-09T17:34:16.623Z,8.13
2023-01-09T17:36:46.195Z,4.50
2023-01-09T17:39:31.007Z,6.32
2023-01-09T17:42:01.816Z,5.82
2023-01-09T17:44:37.021Z,4.18
2023-01-09T17:47:07.198Z,7.93
2023-01-09T17:52:34.052Z,7.85
2023-01-09T17:55:09.535Z,6.15
2023-01-09T17:57:41.026Z,4.10
2023-01-09T18:00:21.144Z,6.45
2023-01-09T18:02:54.065Z,5.10
2023-01-09T18:05:22.871Z,4.38
2023-01-09T18:07:54.054Z,5.43
2023-01-09T18:10:34.120Z,4.70
2023-01-09T18:16:10.059Z,7.90
2023-01-09T18:25:13.115Z,7.10
2023-01-09T18:27:49.362Z,6.47
2023-01-09T18:30:32.388Z,6.80
2023-01-09T18:32:59.778Z,7.25
2023-01-09T18:38:33.860Z,10.75
2023-01-09T18:41:04.983Z,8.50
2023-01-09T18:44:04.882Z,6.15
2023-01-09T18:46:42.349Z,6.97
2023-01-09T18:49:17.694Z,7.13
2023-01-09T18:52:00.114Z,7.32
2023-01-09T18:55:00.436Z,11.90
2023-01-09T18:57:59.043Z,11.90
2023-01-09T19:00:33.113Z,7.40
2023-01-09T19:03:23.253Z,7.20
2023-01-09T19:05:51.168Z,8.60
2023-01-09T19:08:53.125Z,7.30
2023-01-09T19:11:22.416Z,6.15
2023-01-09T19:13:58.080Z,10.00
2023-01-09T19:16:25.622Z,5.57
2023-01-09T19:18:54.091Z,7.22
2023-01-09T19:21:26.967Z,8.57
2023-01-09T19:23:57.238Z,5.25
2023-01-09T19:26:31.068Z,6.38
2023-01-09T19:28:59.307Z,6.30
2023-01-09T19:31:29.037Z,5.25
2023-01-09T19:33:57.611Z,6.70
2023-01-09T19:36:25.666Z,7.18
2023-01-09T19:38:57.475Z,5.72
2023-01-09T19:41:27.169Z,4.13
2023-01-09T19:43:54.473Z,4.00
2023-01-09T19:46:26.184Z,8.98
2023-01-09T19:48:53.974Z,6.53
2023-01-09T19:51:22.957Z,5.38
2023-01-09T19:56:31.476Z,3.72
2023-01-09T19:59:02.179Z,5.05
2023-01-09T20:01:36.319Z,3.30
2023-01-09T20:04:10.166Z,4.00
2023-01-09T20:06:42.326Z,4.93
2023-01-09T20:09:12.189Z,5.15
2023-01-09T20:11:41.562Z,3.35
2023-01-09T20:14:14.367Z,4.13
2023-01-09T20:16:44.772Z,3.65
2023-01-09T20:19:14.456Z,8.68
2023-01-09T20:21:44.100Z,6.40
2023-01-09T20:24:16.935Z,6.60
2023-01-09T20:26:47.106Z,7.57
2023-01-09T20:29:14.347Z,5.30
2023-01-09T20:31:48.701Z,7.07
2023-01-09T20:34:16.390Z,5.23
2023-01-09T20:36:44.261Z,7.72
2023-01-09T20:39:12.534Z,7.60
2023-01-09T20:41:44.186Z,4.93
2023-01-09T20:44:16.015Z,8.32
2023-01-09T20:46:48.250Z,6.63
2023-01-09T20:49:20.952Z,8.40
2023-01-09T20:51:52.202Z,5.20
2023-01-09T20:54:21.897Z,8.82
2023-01-09T20:56:50.554Z,7.35
2023-01-09T20:59:20.972Z,5.18
2023-01-09T21:01:48.735Z,5.30
2023-01-09T21:04:15.846Z,4.35
2023-01-09T21:06:43.140Z,4.75
2023-01-09T21:09:10.321Z,3.97
2023-01-09T21:11:37.516Z,4.35
2023-01-09T21:14:04.478Z,4.88
2023-01-09T21:16:31.824Z,5.15
2023-01-09T21:18:58.787Z,10.73
2023-01-09T21:21:27.673Z,9.73
2023-01-09T21:23:59.372Z,8.18
2023-01-09T21:26:30.443Z,8.10
2023-01-09T21:29:01.184Z,8.50
2023-01-09T21:31:35.160Z,6.50
2023-01-09T21:34:07.590Z,6.95
2023-01-09T21:36:36.223Z,7.15
2023-01-09T21:39:07.856Z,6.10
2023-01-09T21:41:54.709Z,7.88
2023-01-09T21:44:40.000Z,6.72
2023-01-09T21:47:07.322Z,6.10
2023-01-09T21:49:36.089Z,6.82
2023-01-09T21:52:04.693Z,6.43
2023-01-09T21:54:33.017Z,5.53
2023-01-09T21:57:00.869Z,5.47
2023-01-09T21:59:29.376Z,5.13
2023-01-09T22:01:56.855Z,6.03
2023-01-09T22:04:30.264Z,5.78
2023-01-09T22:06:57.562Z,7.38
2023-01-09T22:09:24.511Z,4.80
2023-01-09T22:11:52.215Z,5.28
2023-01-09T22:14:20.343Z,5.20
2023-01-09T22:16:48.216Z,5.20
2023-01-09T22:19:19.672Z,5.63
2023-01-09T22:21:47.856Z,5.05
2023-01-09T22:24:18.677Z,6.03
2023-01-09T22:26:46.112Z,5.40
2023-01-09T22:29:13.679Z,5.22
2023-01-09T22:31:40.910Z,6.63
2023-01-09T22:34:08.011Z,4.80
2023-01-09T22:36:35.399Z,4.18
2023-01-09T22:39:02.410Z,5.25
2023-01-09T22:41:30.678Z,4.32
2023-01-09T22:43:58.576Z,4.30
2023-01-09T22:46:26.053Z,4.72
2023-01-09T22:48:53.169Z,4.82
2023-01-09T22:51:22.032Z,4.28
2023-01-09T22:53:50.301Z,4.20
2023-01-09T22:56:20.885Z,4.93
2023-01-09T22:58:53.564Z,3.80
2023-01-09T23:01:22.881Z,4.85
2023-01-09T23:03:50.185Z,4.70
2023-01-09T23:06:21.451Z,4.10
2023-01-09T23:08:50.978Z,4.22
2023-01-09T23:11:45.337Z,5.32
2023-01-09T23:14:12.677Z,4.78
2023-01-09T23:16:40.409Z,5.03
2023-01-09T23:19:14.504Z,5.10
2023-01-09T23:21:43.544Z,4.88
2023-01-09T23:24:11.950Z,4.72
2023-01-09T23:26:39.368Z,4.55
2023-01-09T23:29:07.796Z,5.00
2023-01-09T23:31:36.035Z,4.18
2023-01-09T23:34:04.470Z,4.05
2023-01-09T23:36:31.839Z,4.28
2023-01-09T23:38:59.668Z,4.45
2023-01-09T23:41:45.475Z,4.50
2023-01-09T23:44:12.465Z,3.88
2023-01-09T23:46:39.715Z,4.45
2023-01-09T23:49:06.633Z,4.32
2023-01-09T23:51:33.838Z,3.75
2023-01-09T23:54:00.874Z,3.95
2023-01-09T23:56:30.600Z,3.35
2023-01-09T23:58:58.185Z,3.15
